createdAt,value
2018-07-16T00:00:21.523Z,16.60
2018-07-16T00:02:50.224Z,16.60
2018-07-16T00:05:18.708Z,16.60
2018-07-16T00:07:47.405Z,16.60
2018-07-16T00:10:16.205Z,16.60
2018-07-16T00:15:13.631Z,16.50
2018-07-16T00:17:41.926Z,16.50
2018-07-16T00:20:10.229Z,16.50
2018-07-16T00:22:38.626Z,16.40
2018-07-16T00:25:07.332Z,16.40
2018-07-16T00:27:35.852Z,16.40
2018-07-16T00:30:04.537Z,16.30
2018-07-16T00:32:33.036Z,16.30
2018-07-16T00:35:01.373Z,16.20
2018-07-16T00:37:31.909Z,16.20
2018-07-16T00:40:00.495Z,16.10
2018-07-16T00:42:28.993Z,16.10
2018-07-16T00:44:57.610Z,16.00
2018-07-16T00:47:26.218Z,16.00
2018-07-16T00:49:54.629Z,16.00
2018-07-16T00:52:22.887Z,15.90
2018-07-16T00:57:19.077Z,15.90
2018-07-16T00:59:47.867Z,15.80
2018-07-16T01:02:16.189Z,15.80
2018-07-16T01:04:44.691Z,15.80
2018-07-16T01:07:12.963Z,15.80
2018-07-16T01:09:41.807Z,15.80
2018-07-16T01:12:10.303Z,15.80
2018-07-16T01:14:38.592Z,15.80
2018-07-16T01:17:07.312Z,15.90
2018-07-16T01:19:35.931Z,16.00
2018-07-16T01:22:04.344Z,16.00
2018-07-16T01:24:32.687Z,16.10
2018-07-16T01:29:29.177Z,16.20
2018-07-16T01:34:25.485Z,16.30
2018-07-16T01:36:53.877Z,16.30
2018-07-16T01:41:50.257Z,16.40
2018-07-16T01:46:46.868Z,16.50
2018-07-16T01:49:16.290Z,16.60
2018-07-16T01:51:44.694Z,16.60
2018-07-16T01:54:13.053Z,16.60
2018-07-16T01:56:41.394Z,16.60
2018-07-16T01:59:09.565Z,16.60
2018-07-16T02:04:06.893Z,16.70
2018-07-16T02:11:32.299Z,16.80
2018-07-16T02:14:00.901Z,16.80
2018-07-16T02:16:29.507Z,16.90
2018-07-16T02:18:58.004Z,16.80
2018-07-16T02:21:26.314Z,16.80
2018-07-16T02:23:54.537Z,16.80
2018-07-16T02:26:22.905Z,16.70
2018-07-16T02:28:51.187Z,16.70
2018-07-16T02:31:19.780Z,16.70
2018-07-16T02:36:16.400Z,16.60
2018-07-16T02:38:44.788Z,16.60
2018-07-16T02:41:13.091Z,16.50
2018-07-16T02:43:41.271Z,16.50
2018-07-16T02:46:09.798Z,16.50
2018-07-16T02:48:38.065Z,16.40
2018-07-16T02:53:34.511Z,16.40
2018-07-16T02:56:02.987Z,16.40
2018-07-16T02:58:31.382Z,16.30
2018-07-16T03:01:02.025Z,16.30
2018-07-16T03:03:30.939Z,16.30
2018-07-16T03:05:59.351Z,16.30
2018-07-16T03:08:27.736Z,16.30
2018-07-16T03:10:56.204Z,16.30
2018-07-16T03:13:24.436Z,16.20
2018-07-16T03:15:52.619Z,16.20
2018-07-16T03:18:21.132Z,16.10
2018-07-16T03:20:49.660Z,16.10
2018-07-16T03:23:18.033Z,16.10
2018-07-16T03:25:46.314Z,16.10
2018-07-16T03:30:43.515Z,16.10
2018-07-16T03:33:12.040Z,16.10
2018-07-16T03:35:40.309Z,16.00
2018-07-16T03:38:08.603Z,16.00
2018-07-16T03:40:37.035Z,16.00
2018-07-16T03:43:05.442Z,15.90
2018-07-16T03:45:33.933Z,15.90
2018-07-16T03:48:02.231Z,16.00
2018-07-16T03:50:30.424Z,15.90
2018-07-16T03:57:55.202Z,15.90
2018-07-16T04:00:23.716Z,15.90
2018-07-16T04:02:52.218Z,15.90
2018-07-16T04:05:21.757Z,15.90
2018-07-16T04:07:50.250Z,15.90
2018-07-16T04:10:18.648Z,15.80
2018-07-16T04:12:46.930Z,15.80
2018-07-16T04:20:12.342Z,15.70
2018-07-16T04:22:40.628Z,15.70
2018-07-16T04:27:36.915Z,15.60
2018-07-16T04:32:33.333Z,15.60
2018-07-16T04:35:02.023Z,15.60
2018-07-16T04:37:30.295Z,15.60
2018-07-16T04:39:58.917Z,15.60
2018-07-16T04:42:27.775Z,15.60
2018-07-16T04:44:56.127Z,15.60
2018-07-16T04:49:52.815Z,15.70
2018-07-16T04:54:49.190Z,15.70
2018-07-16T04:57:17.688Z,15.70
2018-07-16T04:59:46.212Z,15.70
2018-07-16T05:04:42.559Z,15.80
2018-07-16T05:07:11.958Z,15.80
2018-07-16T05:09:41.099Z,15.90
2018-07-16T05:12:09.553Z,16.00
2018-07-16T05:14:37.851Z,16.00
2018-07-16T05:17:06.449Z,16.10
2018-07-16T05:22:02.845Z,16.00
2018-07-16T05:24:31.355Z,16.10
2018-07-16T05:26:59.914Z,16.10
2018-07-16T05:29:28.346Z,16.20
2018-07-16T05:31:56.927Z,16.20
2018-07-16T05:34:25.566Z,16.30
2018-07-16T05:36:53.873Z,16.40
2018-07-16T05:39:22.595Z,16.50
2018-07-16T05:41:51.080Z,16.50
2018-07-16T05:44:19.659Z,16.60
2018-07-16T05:49:16.476Z,16.70
2018-07-16T05:51:45.182Z,16.80
2018-07-16T05:54:13.370Z,16.90
2018-07-16T05:56:41.878Z,16.90
2018-07-16T05:59:10.388Z,17.10
2018-07-16T06:01:38.678Z,17.20
2018-07-16T06:04:07.258Z,17.40
2018-07-16T06:06:35.460Z,17.50
2018-07-16T06:09:04.567Z,17.70
2018-07-16T06:14:00.972Z,17.90
2018-07-16T06:18:57.278Z,18.00
2018-07-16T06:21:26.697Z,18.10
2018-07-16T06:23:55.119Z,18.20
2018-07-16T06:26:23.591Z,18.30
2018-07-16T06:28:53.113Z,18.50
2018-07-16T06:31:21.495Z,18.60
2018-07-16T06:33:49.817Z,18.80
2018-07-16T06:36:20.571Z,18.90
2018-07-16T06:38:48.885Z,19.00
2018-07-16T06:41:17.910Z,19.10
2018-07-16T06:43:45.847Z,19.20
2018-07-16T06:46:14.043Z,19.20
2018-07-16T06:51:10.645Z,19.30
2018-07-16T06:53:40.461Z,19.30
2018-07-16T06:56:08.764Z,19.20
2018-07-16T06:58:37.102Z,19.20
2018-07-16T07:01:05.584Z,19.20
2018-07-16T07:03:33.888Z,19.20
2018-07-16T07:06:02.774Z,19.20
2018-07-16T07:08:31.689Z,19.20
2018-07-16T07:11:00.112Z,19.10
2018-07-16T07:13:28.408Z,19.10
2018-07-16T07:15:56.839Z,19.10
2018-07-16T07:18:25.040Z,19.20
2018-07-16T07:20:53.314Z,19.20
2018-07-16T07:23:21.777Z,19.30
2018-07-16T07:25:50.138Z,19.40
2018-07-16T07:28:19.418Z,19.40
2018-07-16T07:30:47.619Z,19.50
2018-07-16T07:33:16.088Z,19.60
2018-07-16T07:35:44.568Z,19.80
2018-07-16T07:38:13.507Z,19.90
2018-07-16T07:40:41.817Z,20.00
2018-07-16T07:45:38.367Z,20.20
2018-07-16T07:48:06.815Z,20.30
2018-07-16T07:50:35.431Z,20.40
2018-07-16T07:53:03.780Z,20.50
2018-07-16T07:55:31.953Z,20.60
2018-07-16T07:58:00.418Z,20.60
2018-07-16T08:00:28.808Z,20.70
2018-07-16T08:02:57.186Z,20.80
2018-07-16T08:05:25.598Z,20.90
2018-07-16T08:10:22.837Z,21.10
2018-07-16T08:12:51.511Z,21.10
2018-07-16T08:15:20.120Z,21.10
2018-07-16T08:17:48.740Z,21.20
2018-07-16T08:20:17.235Z,21.20
2018-07-16T08:22:45.516Z,21.30
2018-07-16T08:27:41.891Z,21.50
2018-07-16T08:30:10.203Z,21.60
2018-07-16T08:35:06.903Z,21.90
2018-07-16T08:37:35.207Z,22.00
2018-07-16T08:42:32.129Z,22.60
2018-07-16T08:45:00.591Z,23.00
2018-07-16T08:49:57.337Z,23.60
2018-07-16T08:52:25.833Z,23.90
2018-07-16T08:54:54.326Z,24.10
2018-07-16T08:57:22.698Z,24.40
2018-07-16T08:59:51.130Z,24.60
2018-07-16T09:02:19.406Z,24.70
2018-07-16T09:07:15.906Z,25.00
2018-07-16T09:09:44.211Z,25.10
2018-07-16T09:12:12.698Z,25.20
2018-07-16T09:17:09.403Z,25.40
2018-07-16T09:19:37.731Z,25.40
2018-07-16T09:22:06.203Z,25.40
2018-07-16T09:27:03.521Z,25.60
2018-07-16T09:29:31.819Z,25.70
2018-07-16T09:32:00.355Z,25.90
2018-07-16T09:34:28.725Z,25.90
2018-07-16T09:36:57.324Z,26.10
2018-07-16T09:39:25.922Z,26.30
2018-07-16T09:44:22.145Z,26.70
2018-07-16T09:49:19.698Z,26.90
2018-07-16T09:51:48.109Z,26.90
2018-07-16T09:54:16.592Z,27.00
2018-07-16T09:56:45.229Z,27.20
2018-07-16T10:01:49.033Z,27.50
2018-07-16T10:04:17.367Z,27.50
2018-07-16T10:06:45.640Z,27.40
2018-07-16T10:09:13.987Z,27.40
2018-07-16T10:11:42.603Z,27.50
2018-07-16T10:14:11.603Z,27.60
2018-07-16T10:16:40.000Z,27.50
2018-07-16T10:19:08.652Z,27.40
2018-07-16T10:21:37.008Z,27.40
2018-07-16T10:24:05.627Z,27.50
2018-07-16T10:26:34.029Z,27.50
2018-07-16T10:29:02.279Z,27.50
2018-07-16T10:31:30.588Z,27.50
2018-07-16T10:36:27.279Z,27.50
2018-07-16T10:38:55.813Z,27.40
2018-07-16T10:41:24.711Z,27.30
2018-07-16T10:43:53.012Z,27.40
2018-07-16T10:46:21.419Z,27.30
2018-07-16T10:48:49.914Z,27.30
2018-07-16T10:51:18.622Z,27.20
2018-07-16T10:53:46.912Z,27.20
2018-07-16T10:58:44.554Z,27.10
2018-07-16T11:01:13.116Z,27.10
2018-07-16T11:03:41.488Z,27.10
2018-07-16T11:06:15.538Z,27.10
2018-07-16T11:08:43.903Z,27.10
2018-07-16T11:11:12.256Z,27.10
2018-07-16T11:13:40.564Z,27.20
2018-07-16T11:16:08.866Z,27.20
2018-07-16T11:18:37.377Z,27.10
2018-07-16T11:21:05.870Z,27.10
2018-07-16T11:23:34.492Z,27.10
2018-07-16T11:26:02.965Z,27.10
2018-07-16T11:28:31.384Z,26.90
2018-07-16T11:31:00.459Z,26.90
2018-07-16T11:33:28.880Z,26.80
2018-07-16T11:35:57.418Z,26.70
2018-07-16T11:38:25.561Z,26.70
2018-07-16T11:43:21.760Z,26.70
2018-07-16T11:48:18.644Z,26.60
2018-07-16T11:50:47.212Z,26.60
2018-07-16T11:53:15.666Z,26.60
2018-07-16T11:55:44.106Z,26.60
2018-07-16T11:58:12.388Z,26.60
2018-07-16T12:00:40.872Z,26.40
2018-07-16T12:03:09.464Z,26.30
2018-07-16T12:08:06.469Z,26.10
2018-07-16T12:10:35.295Z,25.90
2018-07-16T12:13:04.765Z,25.90
2018-07-16T12:15:33.073Z,25.90
2018-07-16T12:18:01.391Z,25.90
2018-07-16T12:22:57.999Z,25.80
2018-07-16T12:25:26.383Z,25.90
2018-07-16T12:32:51.330Z,25.90
2018-07-16T12:35:19.927Z,26.00
2018-07-16T12:37:48.274Z,26.00
2018-07-16T12:40:16.565Z,26.00
2018-07-16T12:42:44.990Z,25.90
2018-07-16T12:45:13.701Z,25.90
2018-07-16T12:47:42.097Z,26.00
2018-07-16T12:50:10.430Z,26.00
2018-07-16T12:52:38.908Z,26.00
2018-07-16T12:55:07.296Z,26.00
2018-07-16T12:57:35.720Z,26.00
2018-07-16T13:00:05.460Z,26.00
2018-07-16T13:02:33.928Z,26.00
2018-07-16T13:05:02.372Z,26.00
2018-07-16T13:07:30.726Z,26.00
2018-07-16T13:09:59.346Z,25.90
2018-07-16T13:12:28.419Z,25.80
2018-07-16T13:14:57.065Z,25.80
2018-07-16T13:17:25.667Z,25.80
2018-07-16T13:19:53.939Z,25.90
2018-07-16T13:24:50.731Z,26.00
2018-07-16T13:29:47.002Z,26.00
2018-07-16T13:32:15.471Z,25.90
2018-07-16T13:34:44.263Z,26.00
2018-07-16T13:37:13.193Z,26.00
2018-07-16T13:39:41.481Z,26.00
2018-07-16T13:42:10.010Z,26.10
2018-07-16T13:44:38.486Z,26.10
2018-07-16T13:47:07.095Z,26.20
2018-07-16T13:49:36.286Z,26.20
2018-07-16T13:52:04.696Z,26.30
2018-07-16T13:54:33.229Z,26.30
2018-07-16T13:57:01.703Z,26.30
2018-07-16T13:59:30.301Z,26.30
2018-07-16T14:01:58.734Z,26.30
2018-07-16T14:04:27.092Z,26.40
2018-07-16T14:06:55.475Z,26.50
2018-07-16T14:14:21.001Z,26.60
2018-07-16T14:16:49.286Z,26.60
2018-07-16T14:21:45.579Z,26.70
2018-07-16T14:24:14.071Z,26.80
2018-07-16T14:29:10.879Z,26.70
2018-07-16T14:31:39.539Z,26.70
2018-07-16T14:34:08.604Z,26.70
2018-07-16T14:36:36.763Z,26.60
2018-07-16T14:39:05.997Z,26.60
2018-07-16T14:41:34.317Z,26.60
2018-07-16T14:44:02.392Z,26.70
2018-07-16T14:51:27.602Z,27.10
2018-07-16T14:53:57.532Z,27.10
2018-07-16T14:56:26.713Z,27.20
2018-07-16T14:58:55.052Z,27.30
2018-07-16T15:01:23.449Z,27.30
2018-07-16T15:03:52.037Z,27.00
2018-07-16T15:08:48.658Z,26.30
2018-07-16T15:11:16.719Z,26.00
2018-07-16T15:13:45.655Z,25.80
2018-07-16T15:16:14.326Z,25.70
2018-07-16T15:18:42.759Z,25.60
2018-07-16T15:23:39.317Z,25.50
2018-07-16T15:26:07.659Z,25.60
2018-07-16T15:28:36.246Z,25.60
2018-07-16T15:33:33.775Z,25.50
2018-07-16T15:36:02.137Z,25.40
2018-07-16T15:38:30.574Z,25.30
2018-07-16T15:40:59.146Z,25.30
2018-07-16T15:43:28.319Z,25.30
2018-07-16T15:45:56.807Z,25.50
2018-07-16T15:48:25.647Z,25.60
2018-07-16T15:50:54.011Z,25.80
2018-07-16T15:53:23.228Z,25.90
2018-07-16T15:55:51.845Z,25.90
2018-07-16T15:58:20.102Z,25.90
2018-07-16T16:05:45.421Z,25.90
2018-07-16T16:08:13.829Z,25.90
2018-07-16T16:10:42.342Z,25.90
2018-07-16T16:13:11.073Z,25.80
2018-07-16T16:15:39.375Z,25.70
2018-07-16T16:18:07.852Z,25.50
2018-07-16T16:20:36.461Z,25.30
2018-07-16T16:23:04.964Z,25.10
2018-07-16T16:25:33.329Z,24.90
2018-07-16T16:30:31.461Z,24.90
2018-07-16T16:33:00.080Z,24.80
2018-07-16T16:35:28.675Z,24.80
2018-07-16T16:37:57.500Z,24.70
2018-07-16T16:40:26.005Z,24.70
2018-07-16T16:42:54.316Z,24.80
2018-07-16T16:45:23.009Z,24.80
2018-07-16T16:47:51.430Z,24.80
2018-07-16T16:50:19.684Z,24.80
2018-07-16T16:52:48.005Z,24.60
2018-07-16T16:55:16.907Z,24.50
2018-07-16T16:57:45.418Z,24.30
2018-07-16T17:00:14.009Z,24.10
2018-07-16T17:02:42.413Z,24.00
2018-07-16T17:05:10.805Z,23.90
2018-07-16T17:07:39.646Z,23.80
2018-07-16T17:10:09.033Z,23.80
2018-07-16T17:12:37.507Z,23.70
2018-07-16T17:17:33.925Z,23.50
2018-07-16T17:20:02.932Z,23.50
2018-07-16T17:29:55.516Z,23.50
2018-07-16T17:32:23.988Z,23.60
2018-07-16T17:34:53.518Z,23.60
2018-07-16T17:39:50.667Z,23.70
2018-07-16T17:42:19.751Z,23.70
2018-07-16T17:47:16.352Z,23.60
2018-07-16T17:49:46.178Z,23.60
2018-07-16T17:52:14.561Z,23.50
2018-07-16T17:54:42.953Z,23.40
2018-07-16T17:57:11.529Z,23.30
2018-07-16T17:59:40.212Z,23.30
2018-07-16T18:02:09.443Z,23.20
2018-07-16T18:04:37.794Z,23.10
2018-07-16T18:07:06.569Z,23.00
2018-07-16T18:09:35.023Z,22.90
2018-07-16T18:12:04.754Z,22.80
2018-07-16T18:14:33.151Z,22.80
2018-07-16T18:17:01.533Z,22.70
2018-07-16T18:21:58.204Z,22.50
2018-07-16T18:24:26.734Z,22.40
2018-07-16T18:26:54.954Z,22.30
2018-07-16T18:29:23.551Z,22.30
2018-07-16T18:31:52.254Z,22.10
2018-07-16T18:34:20.770Z,22.00
2018-07-16T18:36:49.132Z,21.90
2018-07-16T18:39:17.751Z,21.80
2018-07-16T18:41:46.771Z,21.70
2018-07-16T18:46:43.960Z,21.50
2018-07-16T18:51:40.998Z,21.20
2018-07-16T18:54:09.634Z,21.10
2018-07-16T18:56:37.985Z,21.00
2018-07-16T18:59:06.620Z,20.90
2018-07-16T19:01:34.886Z,20.70
2018-07-16T19:06:31.728Z,20.50
2018-07-16T19:09:00.159Z,20.40
2018-07-16T19:11:28.804Z,20.30
2018-07-16T19:13:58.627Z,20.10
2018-07-16T19:16:27.285Z,20.00
2018-07-16T19:18:55.784Z,19.90
2018-07-16T19:21:24.250Z,19.80
2018-07-16T19:23:52.829Z,19.70
2018-07-16T19:26:21.214Z,19.60
2018-07-16T19:28:49.696Z,19.50
2018-07-16T19:31:18.228Z,19.40
2018-07-16T19:36:14.536Z,19.20
2018-07-16T19:38:43.394Z,19.20
2018-07-16T19:41:11.800Z,19.10
2018-07-16T19:43:40.327Z,19.00
2018-07-16T19:48:37.639Z,18.90
2018-07-16T19:53:34.768Z,18.70
2018-07-16T19:56:03.959Z,18.60
2018-07-16T20:01:00.738Z,18.50
2018-07-16T20:03:30.497Z,18.40
2018-07-16T20:05:58.709Z,18.40
2018-07-16T20:08:27.022Z,18.30
2018-07-16T20:10:55.362Z,18.30
2018-07-16T20:13:23.880Z,18.20
2018-07-16T20:15:52.351Z,18.20
2018-07-16T20:18:21.812Z,18.10
2018-07-16T20:20:55.329Z,18.10
2018-07-16T20:23:23.848Z,18.10
2018-07-16T20:25:54.128Z,18.00
2018-07-16T20:28:23.120Z,18.00
2018-07-16T20:30:51.555Z,17.90
2018-07-16T20:33:20.884Z,17.90
2018-07-16T20:35:49.649Z,17.90
2018-07-16T20:38:18.180Z,17.80
2018-07-16T20:40:47.131Z,17.70
2018-07-16T20:43:15.563Z,17.70
2018-07-16T20:45:44.172Z,17.60
2018-07-16T20:48:13.104Z,17.60
2018-07-16T20:50:41.558Z,17.50
2018-07-16T20:53:10.709Z,17.40
2018-07-16T20:55:39.274Z,17.30
2018-07-16T20:58:07.571Z,17.30
2018-07-16T21:03:03.867Z,17.20
2018-07-16T21:05:32.767Z,17.10
2018-07-16T21:08:01.576Z,17.00
2018-07-16T21:10:30.070Z,17.00
2018-07-16T21:20:23.172Z,16.70
2018-07-16T21:22:51.880Z,16.70
2018-07-16T21:25:20.176Z,16.70
2018-07-16T21:27:48.565Z,16.60
2018-07-16T21:32:44.889Z,16.50
2018-07-16T21:35:13.056Z,16.50
2018-07-16T21:42:37.509Z,16.30
2018-07-16T21:45:06.457Z,16.30
2018-07-16T21:47:34.819Z,16.20
2018-07-16T21:50:03.225Z,16.20
2018-07-16T21:52:32.756Z,16.10
2018-07-16T21:55:01.260Z,16.10
2018-07-16T22:02:26.014Z,16.00
2018-07-16T22:04:54.357Z,15.90
2018-07-16T22:09:51.633Z,15.80
2018-07-16T22:12:19.845Z,15.80
2018-07-16T22:17:16.543Z,15.70
2018-07-16T22:22:13.439Z,15.60
2018-07-16T22:24:42.561Z,15.60
2018-07-16T22:32:07.575Z,15.50
2018-07-16T22:34:35.744Z,15.50
2018-07-16T22:37:04.243Z,15.40
2018-07-16T22:39:32.661Z,15.40
2018-07-16T22:46:57.236Z,15.40
2018-07-16T22:49:25.558Z,15.30
2018-07-16T22:51:53.738Z,15.30
2018-07-16T22:56:50.042Z,15.30
2018-07-16T22:59:18.424Z,15.20
2018-07-16T23:06:43.633Z,15.10
2018-07-16T23:09:11.706Z,15.10
2018-07-16T23:11:42.170Z,15.00
2018-07-16T23:14:10.556Z,15.00
2018-07-16T23:16:38.970Z,15.00
2018-07-16T23:21:35.369Z,14.90
2018-07-16T23:24:04.181Z,14.90
2018-07-16T23:26:32.752Z,14.90
2018-07-16T23:29:01.866Z,14.80
2018-07-16T23:36:26.497Z,14.70
2018-07-16T23:38:54.774Z,14.70
2018-07-16T23:41:24.036Z,14.70
2018-07-16T23:43:52.405Z,14.60
2018-07-16T23:46:20.700Z,14.60
2018-07-16T23:48:50.190Z,14.60
2018-07-16T23:51:18.824Z,14.50
2018-07-16T23:53:47.332Z,14.50
2018-07-16T23:56:15.620Z,14.50
2018-07-16T23:58:43.896Z,14.50
